Time;durP1;ratioP1;P1;durP2;ratioP2;P2;SDS_P1;SDS_P2;PMS_P1;PMS_P2;Temp;Humidity;BMP_temperature;BMP_pressure;BME280_temperature;BME280_humidity;BME280_pressure;Samples;Min_cycle;Max_cycle;Signal;HPM_P1;HPM_P2
2023/01/07 00:00:48;;;;;;;11.65;4.20;;;;;;;;;;4922125;28;20668;-71
2023/01/07 00:03:17;;;;;;;7.45;4.13;;;;;;;;;;4916573;28;20047;-71
2023/01/07 00:05:44;;;;;;;9.52;5.10;;;;;;;;;;4929942;28;20059;-71
2023/01/07 00:08:11;;;;;;;9.20;4.30;;;;;;;;;;4916637;28;20070;-72
2023/01/07 00:10:38;;;;;;;10.00;4.15;;;;;;;;;;4890844;28;20198;-73
2023/01/07 00:13:05;;;;;;;7.75;4.38;;;;;;;;;;4902247;28;20058;-72
2023/01/07 00:15:34;;;;;;;9.13;4.50;;;;;;;;;;4919307;28;20046;-72
2023/01/07 00:18:00;;;;;;;7.22;3.88;;;;;;;;;;4904605;29;20055;-69
2023/01/07 00:20:28;;;;;;;7.75;3.78;;;;;;;;;;4890796;28;20210;-72
2023/01/07 00:22:54;;;;;;;10.23;4.82;;;;;;;;;;4926793;28;20061;-72
2023/01/07 00:25:22;;;;;;;9.52;4.57;;;;;;;;;;4957635;28;20070;-71
2023/01/07 00:27:51;;;;;;;9.15;4.13;;;;;;;;;;4947973;28;20230;-72
2023/01/07 00:30:18;;;;;;;9.52;4.30;;;;;;;;;;4931926;28;20054;-71
2023/01/07 00:32:58;;;;;;;7.68;3.88;;;;;;;;;;4931023;28;20054;-71
2023/01/07 00:35:25;;;;;;;10.25;4.30;;;;;;;;;;4938831;28;20161;-72
2023/01/07 00:37:56;;;;;;;9.55;3.55;;;;;;;;;;4937858;28;20082;-71
2023/01/07 00:40:23;;;;;;;9.73;3.88;;;;;;;;;;4939542;28;20059;-71
2023/01/07 00:43:00;;;;;;;8.27;4.13;;;;;;;;;;4938112;28;20134;-71
2023/01/07 00:45:29;;;;;;;6.93;3.88;;;;;;;;;;4962764;28;20054;-71
2023/01/07 00:47:55;;;;;;;;;;;;;;;;;;4955170;28;20055;-71
2023/01/07 00:50:25;;;;;;;9.02;4.15;;;;;;;;;;4912245;28;19926;-71
2023/01/07 00:52:52;;;;;;;7.78;3.50;;;;;;;;;;4902169;28;20079;-71
2023/01/07 00:55:19;;;;;;;8.23;4.18;;;;;;;;;;4888608;29;20118;-71
2023/01/07 00:57:48;;;;;;;8.43;4.05;;;;;;;;;;4890575;28;20082;-71
2023/01/07 01:00:18;;;;;;;9.50;4.25;;;;;;;;;;4872507;28;20047;-71
2023/01/07 01:02:45;;;;;;;9.65;4.28;;;;;;;;;;4896184;28;20051;-71
2023/01/07 01:05:11;;;;;;;7.57;3.65;;;;;;;;;;4939800;28;20059;-71
2023/01/07 01:07:40;;;;;;;8.48;3.42;;;;;;;;;;4943481;28;20074;-71
2023/01/07 01:10:08;;;;;;;7.18;3.50;;;;;;;;;;4908143;28;20107;-72
2023/01/07 01:12:35;;;;;;;7.13;3.43;;;;;;;;;;4930846;28;20059;-71
2023/01/07 01:15:01;;;;;;;7.68;3.90;;;;;;;;;;4922617;28;20140;-71
2023/01/07 01:17:32;;;;;;;7.40;3.75;;;;;;;;;;4925607;28;20062;-72
2023/01/07 01:20:02;;;;;;;8.23;3.47;;;;;;;;;;4929931;28;20047;-71
2023/01/07 01:22:29;;;;;;;7.85;3.70;;;;;;;;;;4938172;28;20134;-71
2023/01/07 01:24:57;;;;;;;7.47;3.97;;;;;;;;;;4931248;28;20083;-71
2023/01/07 01:27:24;;;;;;;8.98;3.78;;;;;;;;;;4939691;28;20055;-73
2023/01/07 01:29:51;;;;;;;7.15;3.50;;;;;;;;;;4931680;28;20058;-71
2023/01/07 01:32:17;;;;;;;7.40;3.83;;;;;;;;;;4938071;28;20066;-71
2023/01/07 01:34:44;;;;;;;8.15;3.72;;;;;;;;;;4952311;28;20095;-71
2023/01/07 01:37:12;;;;;;;8.43;3.60;;;;;;;;;;4975081;28;20149;-71
2023/01/07 01:39:39;;;;;;;6.97;3.75;;;;;;;;;;4935153;28;20066;-71
2023/01/07 01:42:10;;;;;;;9.25;3.80;;;;;;;;;;4940920;28;20074;-72
2023/01/07 01:44:39;;;;;;;7.45;3.47;;;;;;;;;;4935312;28;20059;-71
2023/01/07 01:47:11;;;;;;;8.35;3.53;;;;;;;;;;4923413;28;20062;-71
2023/01/07 01:49:39;;;;;;;9.55;3.53;;;;;;;;;;4917618;28;20061;-72
2023/01/07 01:52:08;;;;;;;7.30;3.67;;;;;;;;;;4912504;28;20075;-71
2023/01/07 01:54:38;;;;;;;7.47;3.78;;;;;;;;;;4935987;28;20055;-72
2023/01/07 01:57:07;;;;;;;7.53;3.50;;;;;;;;;;4930394;28;20067;-71
2023/01/07 01:59:37;;;;;;;8.60;3.30;;;;;;;;;;4896249;28;20121;-72
2023/01/07 02:02:05;;;;;;;7.72;3.25;;;;;;;;;;4948742;28;20058;-72
2023/01/07 02:04:33;;;;;;;8.02;3.42;;;;;;;;;;4944022;28;20069;-71
2023/01/07 02:07:02;;;;;;;7.45;3.63;;;;;;;;;;4941262;28;20054;-72
2023/01/07 02:09:30;;;;;;;7.35;3.30;;;;;;;;;;4940677;28;20078;-72
2023/01/07 02:12:07;;;;;;;8.90;3.53;;;;;;;;;;4944522;28;20051;-71
2023/01/07 02:14:42;;;;;;;10.75;3.88;;;;;;;;;;4941517;28;20069;-72
2023/01/07 02:17:12;;;;;;;7.65;3.17;;;;;;;;;;4936153;28;20150;-72
2023/01/07 02:19:58;;;;;;;10.27;3.13;;;;;;;;;;4931726;28;20054;-72
2023/01/07 02:22:34;;;;;;;6.07;3.22;;;;;;;;;;4971491;28;20062;-71
2023/01/07 02:25:14;;;;;;;8.20;3.58;;;;;;;;;;4942499;28;20073;-71
2023/01/07 02:27:51;;;;;;;7.72;3.13;;;;;;;;;;4914431;28;20173;-71
2023/01/07 02:30:36;;;;;;;9.70;3.17;;;;;;;;;;4934631;28;20063;-71
2023/01/07 02:33:13;;;;;;;7.03;3.17;;;;;;;;;;4943724;28;20056;-71
2023/01/07 02:35:46;;;;;;;7.60;3.13;;;;;;;;;;4928156;28;20155;-71
2023/01/07 02:38:22;;;;;;;7.05;3.53;;;;;;;;;;4937260;28;20071;-72
2023/01/07 02:40:53;;;;;;;7.45;3.38;;;;;;;;;;4899699;28;20068;-72
2023/01/07 02:43:25;;;;;;;6.18;3.03;;;;;;;;;;4963174;28;20145;-71
2023/01/07 02:45:56;;;;;;;8.18;3.25;;;;;;;;;;4936370;28;20201;-71
2023/01/07 02:48:30;;;;;;;5.47;2.78;;;;;;;;;;4920865;28;20098;-71
2023/01/07 02:50:57;;;;;;;6.70;3.33;;;;;;;;;;4935527;28;20062;-71
2023/01/07 02:53:27;;;;;;;7.32;3.15;;;;;;;;;;4933417;28;20059;-72
2023/01/07 02:56:04;;;;;;;6.97;3.42;;;;;;;;;;4927976;28;20097;-71
2023/01/07 02:58:46;;;;;;;6.28;3.20;;;;;;;;;;4956476;28;20054;-71
2023/01/07 03:01:20;;;;;;;8.63;3.97;;;;;;;;;;4957042;28;20124;-72
2023/01/07 03:03:55;;;;;;;8.95;3.28;;;;;;;;;;4899194;28;20100;-71
2023/01/07 03:06:30;;;;;;;7.63;3.53;;;;;;;;;;4941520;28;20066;-71
2023/01/07 03:09:05;;;;;;;6.65;3.40;;;;;;;;;;4940807;28;20059;-72
2023/01/07 03:11:42;;;;;;;6.78;3.17;;;;;;;;;;4961997;28;20046;-72
2023/01/07 03:14:10;;;;;;;7.95;3.65;;;;;;;;;;4932542;28;20050;-71
2023/01/07 03:16:38;;;;;;;7.90;3.30;;;;;;;;;;4940997;28;20046;-72
2023/01/07 03:19:11;;;;;;;7.53;3.55;;;;;;;;;;4936442;28;20154;-72
2023/01/07 03:21:39;;;;;;;8.45;3.55;;;;;;;;;;4934000;28;20149;-71
2023/01/07 03:24:08;;;;;;;7.03;3.35;;;;;;;;;;4932055;28;20069;-71
2023/01/07 03:26:36;;;;;;;7.50;3.40;;;;;;;;;;4947907;28;20312;-72
2023/01/07 03:29:04;;;;;;;;;;;;;;;;;;4936693;28;20082;-71
2023/01/07 03:31:31;;;;;;;10.73;3.63;;;;;;;;;;4952543;28;20295;-71
2023/01/07 03:34:01;;;;;;;8.02;3.60;;;;;;;;;;4931983;28;20051;-71
2023/01/07 03:36:30;;;;;;;7.07;3.20;;;;;;;;;;4922165;28;20047;-71
2023/01/07 03:38:57;;;;;;;8.85;2.97;;;;;;;;;;4921235;28;20051;-72
2023/01/07 03:44:07;;;;;;;6.55;3.15;;;;;;;;;;4891128;28;20070;-71
2023/01/07 03:46:35;;;;;;;7.32;3.15;;;;;;;;;;4913848;29;20109;-71
2023/01/07 03:49:02;;;;;;;6.77;2.77;;;;;;;;;;4932601;28;20433;-71
2023/01/07 03:51:31;;;;;;;6.73;3.13;;;;;;;;;;4953300;28;20058;-71
2023/01/07 03:53:57;;;;;;;7.68;3.83;;;;;;;;;;4917240;28;20298;-71
2023/01/07 03:56:24;;;;;;;6.28;3.08;;;;;;;;;;4956484;28;20062;-71
2023/01/07 03:58:50;;;;;;;5.90;3.03;;;;;;;;;;4953238;28;20067;-72
2023/01/07 04:01:17;;;;;;;7.90;3.35;;;;;;;;;;4957181;28;20162;-71
2023/01/07 04:03:43;;;;;;;7.00;3.28;;;;;;;;;;4940354;28;20063;-71
2023/01/07 04:06:10;;;;;;;7.82;3.03;;;;;;;;;;4918078;28;20051;-71
2023/01/07 04:08:38;;;;;;;7.85;3.45;;;;;;;;;;4947860;28;20051;-71
2023/01/07 04:11:08;;;;;;;6.53;3.05;;;;;;;;;;4951028;28;20050;-72
2023/01/07 04:13:34;;;;;;;9.98;3.15;;;;;;;;;;4952967;28;20065;-71
2023/01/07 04:16:01;;;;;;;8.35;3.25;;;;;;;;;;4939892;28;20063;-71
2023/01/07 04:18:27;;;;;;;8.35;3.55;;;;;;;;;;4936355;28;20122;-71
2023/01/07 04:20:54;;;;;;;6.30;3.08;;;;;;;;;;4918069;28;20147;-71
2023/01/07 04:23:21;;;;;;;8.52;3.33;;;;;;;;;;4922420;28;20063;-71
2023/01/07 04:25:49;;;;;;;8.95;3.20;;;;;;;;;;4918712;28;20051;-71
2023/01/07 04:28:16;;;;;;;;;;;;;;;;;;4938120;28;20117;-71
2023/01/07 04:30:42;;;;;;;6.47;2.85;;;;;;;;;;4922409;29;19931;-71
2023/01/07 04:33:10;;;;;;;6.90;3.08;;;;;;;;;;4939050;28;20058;-72
2023/01/07 04:35:36;;;;;;;6.28;2.90;;;;;;;;;;4917830;28;20090;-71
2023/01/07 04:38:03;;;;;;;6.85;2.90;;;;;;;;;;4972951;28;20073;-71
2023/01/07 04:40:30;;;;;;;6.47;2.88;;;;;;;;;;4957116;28;20066;-71
2023/01/07 04:42:58;;;;;;;9.00;3.30;;;;;;;;;;4939362;28;20078;-71
2023/01/07 04:45:24;;;;;;;7.10;2.85;;;;;;;;;;4952484;28;20283;-71
2023/01/07 04:47:54;;;;;;;8.10;3.30;;;;;;;;;;4951516;28;20066;-71
2023/01/07 04:50:21;;;;;;;6.35;2.80;;;;;;;;;;4961437;28;20059;-71
2023/01/07 04:52:47;;;;;;;7.85;3.15;;;;;;;;;;4952547;28;20069;-71
2023/01/07 04:55:14;;;;;;;6.35;2.80;;;;;;;;;;4935827;28;20058;-71
2023/01/07 04:57:40;;;;;;;6.13;2.92;;;;;;;;;;4936529;28;20069;-71
2023/01/07 05:00:09;;;;;;;6.15;3.13;;;;;;;;;;4943350;28;20066;-71
2023/01/07 05:02:36;;;;;;;7.05;3.17;;;;;;;;;;4961352;28;20050;-71
2023/01/07 05:05:04;;;;;;;7.28;3.08;;;;;;;;;;4932265;28;20066;-71
2023/01/07 05:07:31;;;;;;;;;;;;;;;;;;4928513;28;20059;-71
2023/01/07 05:09:57;;;;;;;6.32;2.97;;;;;;;;;;4940339;28;19937;-71
2023/01/07 05:12:24;;;;;;;5.93;3.05;;;;;;;;;;4930021;28;20291;-71
2023/01/07 05:14:51;;;;;;;6.35;3.17;;;;;;;;;;4955018;28;20636;-71
2023/01/07 05:17:19;;;;;;;6.10;2.78;;;;;;;;;;4948852;28;20050;-71
2023/01/07 05:19:45;;;;;;;6.47;2.75;;;;;;;;;;4944737;28;20109;-71
2023/01/07 05:22:12;;;;;;;6.82;2.95;;;;;;;;;;4956913;28;20051;-72
2023/01/07 05:24:38;;;;;;;6.68;2.88;;;;;;;;;;4955907;28;20062;-71
2023/01/07 05:27:07;;;;;;;5.15;2.50;;;;;;;;;;4925211;28;20089;-72
2023/01/07 05:29:41;;;;;;;6.60;3.00;;;;;;;;;;4922134;28;20074;-71
2023/01/07 05:32:07;;;;;;;5.70;2.80;;;;;;;;;;4923709;28;20062;-71
2023/01/07 05:34:35;;;;;;;5.68;2.95;;;;;;;;;;4929805;28;20135;-71
2023/01/07 05:37:02;;;;;;;7.68;2.97;;;;;;;;;;4926106;28;20094;-71
2023/01/07 05:39:28;;;;;;;7.80;2.85;;;;;;;;;;4940951;28;20320;-71
2023/01/07 05:41:55;;;;;;;6.28;2.92;;;;;;;;;;4922462;28;20058;-71
2023/01/07 05:44:22;;;;;;;6.57;2.80;;;;;;;;;;4926724;28;20146;-70
2023/01/07 05:46:49;;;;;;;6.22;2.88;;;;;;;;;;4938577;28;20055;-70
2023/01/07 05:49:15;;;;;;;5.60;2.53;;;;;;;;;;4925013;28;20063;-71
2023/01/07 05:51:43;;;;;;;7.65;3.15;;;;;;;;;;4904802;29;20059;-71
2023/01/07 05:54:10;;;;;;;5.40;2.65;;;;;;;;;;4905975;28;20059;-71
2023/01/07 05:56:37;;;;;;;6.53;2.88;;;;;;;;;;4944557;28;20054;-71
2023/01/07 05:59:07;;;;;;;7.38;2.88;;;;;;;;;;4954646;28;20062;-71
2023/01/07 06:01:33;;;;;;;6.45;2.70;;;;;;;;;;4959605;28;20062;-71
2023/01/07 06:04:00;;;;;;;7.90;2.80;;;;;;;;;;4942020;28;20201;-70
2023/01/07 06:06:27;;;;;;;6.50;2.70;;;;;;;;;;4957659;28;20063;-70
2023/01/07 06:08:55;;;;;;;5.63;2.45;;;;;;;;;;4956255;28;20066;-72
2023/01/07 06:11:22;;;;;;;5.47;2.70;;;;;;;;;;4954688;28;20089;-71
2023/01/07 06:13:48;;;;;;;4.55;2.30;;;;;;;;;;4938616;28;20055;-72
2023/01/07 06:16:15;;;;;;;5.72;2.53;;;;;;;;;;4936632;28;20054;-72
2023/01/07 06:18:42;;;;;;;6.35;2.63;;;;;;;;;;4956482;28;20082;-72
2023/01/07 06:21:08;;;;;;;5.63;2.38;;;;;;;;;;4943850;28;20055;-72
2023/01/07 06:23:36;;;;;;;5.43;2.42;;;;;;;;;;4939589;28;20051;-71
2023/01/07 06:26:06;;;;;;;5.78;2.88;;;;;;;;;;4941691;28;20061;-72
2023/01/07 06:28:33;;;;;;;7.80;2.47;;;;;;;;;;4921312;28;20066;-72
2023/01/07 06:31:00;;;;;;;6.45;2.45;;;;;;;;;;4943461;28;20054;-72
2023/01/07 06:33:27;;;;;;;5.72;2.60;;;;;;;;;;4930612;28;20054;-72
2023/01/07 06:35:53;;;;;;;6.30;2.58;;;;;;;;;;4939952;28;20062;-71
2023/01/07 06:38:20;;;;;;;4.72;2.17;;;;;;;;;;4920789;28;20078;-72
2023/01/07 06:40:47;;;;;;;4.13;2.05;;;;;;;;;;4935536;28;20049;-71
2023/01/07 06:43:15;;;;;;;5.43;2.50;;;;;;;;;;4931986;28;20073;-69
2023/01/07 06:45:41;;;;;;;5.05;2.50;;;;;;;;;;4953131;28;20124;-72
2023/01/07 06:48:08;;;;;;;5.88;2.60;;;;;;;;;;4978177;28;20054;-70
2023/01/07 06:50:34;;;;;;;4.78;2.58;;;;;;;;;;4938495;28;20545;-71
2023/01/07 06:53:01;;;;;;;4.00;2.17;;;;;;;;;;4957869;28;20058;-72
2023/01/07 06:55:27;;;;;;;6.35;2.67;;;;;;;;;;4947623;28;20097;-70
2023/01/07 06:57:54;;;;;;;7.68;2.30;;;;;;;;;;4950544;28;20062;-72
2023/01/07 07:00:22;;;;;;;4.88;2.40;;;;;;;;;;4937366;28;20090;-71
2023/01/07 07:02:49;;;;;;;5.00;2.40;;;;;;;;;;4927278;28;20070;-70
2023/01/07 07:05:19;;;;;;;4.78;2.10;;;;;;;;;;4953955;28;20131;-71
2023/01/07 07:07:47;;;;;;;6.13;2.28;;;;;;;;;;4942124;28;20059;-70
2023/01/07 07:10:16;;;;;;;5.75;2.10;;;;;;;;;;4938195;28;20125;-71
2023/01/07 07:12:43;;;;;;;4.07;2.03;;;;;;;;;;4945747;28;20154;-71
2023/01/07 07:15:11;;;;;;;5.05;1.88;;;;;;;;;;4926345;28;20063;-72
2023/01/07 07:17:39;;;;;;;4.70;2.15;;;;;;;;;;4954942;28;20463;-71
2023/01/07 07:20:09;;;;;;;5.03;1.92;;;;;;;;;;4956791;28;20055;-71
2023/01/07 07:22:35;;;;;;;5.20;1.90;;;;;;;;;;4943215;28;20054;-72
2023/01/07 07:25:02;;;;;;;5.07;1.88;;;;;;;;;;4954800;28;20069;-71
2023/01/07 07:27:31;;;;;;;4.35;1.85;;;;;;;;;;4941295;28;20047;-71
2023/01/07 07:30:00;;;;;;;5.78;1.92;;;;;;;;;;4973960;28;20190;-71
2023/01/07 07:32:45;;;;;;;5.13;2.17;;;;;;;;;;4953838;28;20757;-72
2023/01/07 07:35:14;;;;;;;3.88;1.95;;;;;;;;;;4946898;28;20047;-72
2023/01/07 07:37:40;;;;;;;4.00;1.90;;;;;;;;;;4925326;28;20054;-72
2023/01/07 07:40:09;;;;;;;3.83;2.00;;;;;;;;;;4917141;28;20323;-71
2023/01/07 07:42:35;;;;;;;4.60;2.00;;;;;;;;;;4936007;28;20137;-72
2023/01/07 07:48:00;;;;;;;3.78;1.90;;;;;;;;;;4899700;28;20110;-72
2023/01/07 07:50:29;;;;;;;5.30;1.90;;;;;;;;;;4912667;28;20063;-72
2023/01/07 07:53:01;;;;;;;4.57;1.95;;;;;;;;;;4923348;28;20058;-72
2023/01/07 07:55:31;;;;;;;7.93;1.95;;;;;;;;;;4924244;28;20113;-72
2023/01/07 07:57:58;;;;;;;3.78;1.90;;;;;;;;;;4941094;28;20058;-72
2023/01/07 08:00:25;;;;;;;3.45;1.83;;;;;;;;;;4935056;28;20077;-72
2023/01/07 08:02:52;;;;;;;3.85;1.83;;;;;;;;;;4934753;28;20047;-73
2023/01/07 08:08:38;;;;;;;2.83;1.70;;;;;;;;;;4925918;28;20103;-73
2023/01/07 08:11:15;;;;;;;3.78;1.60;;;;;;;;;;4896028;29;20055;-74
2023/01/07 08:20:00;;;;;;;4.28;1.85;;;;;;;;;;4870951;29;20051;-71
2023/01/07 08:22:59;;;;;;;6.85;1.95;;;;;;;;;;4841926;29;20131;-72
2023/01/07 08:28:21;;;;;;;3.33;1.58;;;;;;;;;;4931954;28;20245;-72
2023/01/07 08:30:55;;;;;;;3.35;1.58;;;;;;;;;;4971549;28;20059;-71
2023/01/07 08:33:38;;;;;;;3.38;1.70;;;;;;;;;;4895000;28;20059;-72
2023/01/07 08:36:10;;;;;;;6.32;1.75;;;;;;;;;;4922322;28;20055;-71
2023/01/07 08:38:47;;;;;;;3.28;1.60;;;;;;;;;;4940482;28;20081;-71
2023/01/07 08:43:57;;;;;;;3.67;1.42;;;;;;;;;;4948201;28;20050;-71
2023/01/07 08:46:35;;;;;;;3.28;1.45;;;;;;;;;;4989707;28;20054;-72
2023/01/07 08:49:07;;;;;;;3.03;1.30;;;;;;;;;;4992360;28;20080;-72
2023/01/07 08:51:41;;;;;;;2.70;1.42;;;;;;;;;;5012849;28;20056;-72
2023/01/07 08:54:24;;;;;;;2.90;1.48;;;;;;;;;;4990720;28;20054;-71
2023/01/07 08:56:59;;;;;;;2.42;1.42;;;;;;;;;;4971877;28;20053;-72
2023/01/07 08:59:30;;;;;;;2.55;1.35;;;;;;;;;;4975987;28;20073;-72
2023/01/07 09:01:59;;;;;;;2.50;1.30;;;;;;;;;;4986237;28;20046;-72
2023/01/07 09:04:37;;;;;;;3.58;1.30;;;;;;;;;;5002971;28;20056;-72
2023/01/07 09:07:22;;;;;;;3.55;1.30;;;;;;;;;;5023982;28;20060;-72
2023/01/07 09:09:57;;;;;;;3.45;1.50;;;;;;;;;;4968978;28;20061;-71
2023/01/07 09:12:34;;;;;;;2.63;1.35;;;;;;;;;;4973958;28;20049;-72
2023/01/07 09:15:19;;;;;;;3.65;1.23;;;;;;;;;;4981270;28;20161;-71
2023/01/07 09:17:47;;;;;;;2.88;1.17;;;;;;;;;;4987458;28;20145;-71
2023/01/07 09:20:13;;;;;;;5.70;1.38;;;;;;;;;;5002030;28;20065;-71
2023/01/07 09:22:51;;;;;;;1.98;1.13;;;;;;;;;;4970080;28;20050;-71
2023/01/07 09:25:18;;;;;;;2.30;1.40;;;;;;;;;;4978353;28;20065;-70
2023/01/07 09:27:54;;;;;;;2.83;1.70;;;;;;;;;;4981196;28;20062;-71
2023/01/07 09:30:22;;;;;;;2.97;1.52;;;;;;;;;;4977229;28;20405;-71
2023/01/07 09:32:53;;;;;;;3.08;1.40;;;;;;;;;;4959271;28;20049;-72
2023/01/07 09:35:42;;;;;;;2.65;1.40;;;;;;;;;;4997908;28;20089;-73
2023/01/07 09:38:11;;;;;;;4.78;1.25;;;;;;;;;;4990993;28;20117;-70
2023/01/07 09:40:47;;;;;;;2.75;1.27;;;;;;;;;;4928958;28;20050;-71
2023/01/07 09:43:16;;;;;;;3.03;1.30;;;;;;;;;;4938601;28;20057;-71
2023/01/07 09:45:49;;;;;;;2.83;1.00;;;;;;;;;;4959024;28;20054;-71
2023/01/07 09:48:33;;;;;;;3.75;1.50;;;;;;;;;;4987656;28;20057;-71
2023/01/07 09:51:16;;;;;;;4.80;1.40;;;;;;;;;;5003979;28;20100;-70
2023/01/07 09:53:55;;;;;;;2.88;1.17;;;;;;;;;;4945193;28;20053;-71
2023/01/07 09:56:26;;;;;;;2.03;1.20;;;;;;;;;;4973199;28;20053;-70
2023/01/07 10:04:44;;;;;;;1.60;1.08;;;;;;;;;;4990714;28;20083;-71
2023/01/07 10:07:20;;;;;;;4.78;1.40;;;;;;;;;;4983878;28;20049;-71
2023/01/07 10:10:09;;;;;;;4.32;1.73;;;;;;;;;;5005004;28;20057;-71
2023/01/07 10:12:41;;;;;;;3.58;1.63;;;;;;;;;;5012346;28;20064;-71
2023/01/07 10:15:24;;;;;;;9.13;3.97;;;;;;;;;;4981361;28;20056;-71
2023/01/07 10:18:16;;;;;;;7.97;3.53;;;;;;;;;;4999494;28;20045;-70
2023/01/07 10:21:22;;;;;;;5.43;2.63;;;;;;;;;;4926679;28;20145;-71
2023/01/07 10:24:03;;;;;;;9.15;3.25;;;;;;;;;;4961369;28;20215;-71
2023/01/07 10:26:47;;;;;;;6.25;2.63;;;;;;;;;;4853276;28;20053;-71
2023/01/07 10:29:32;;;;;;;5.28;2.55;;;;;;;;;;4973531;28;20114;-71
2023/01/07 10:32:03;;;;;;;5.43;2.60;;;;;;;;;;4988044;28;20081;-71
2023/01/07 10:34:34;;;;;;;5.07;2.25;;;;;;;;;;5004971;28;20071;-71
2023/01/07 10:37:06;;;;;;;4.53;2.00;;;;;;;;;;4955497;28;20148;-71
2023/01/07 10:39:51;;;;;;;6.28;2.25;;;;;;;;;;4941066;28;20053;-70
2023/01/07 10:42:41;;;;;;;4.20;2.08;;;;;;;;;;4973993;28;20161;-72
2023/01/07 10:49:01;;;;;;;5.72;2.40;;;;;;;;;;4927782;28;20149;-70
2023/01/07 10:51:54;;;;;;;6.63;2.00;;;;;;;;;;4900257;28;20287;-70
2023/01/07 10:54:52;;;;;;;3.92;1.88;;;;;;;;;;4928718;28;20105;-71
2023/01/07 10:57:49;;;;;;;;;;;;;;;;;;;;;
2023/01/07 11:00:36;;;;;;;3.85;1.88;;;;;;;;;;4908321;28;20123;-71
2023/01/07 11:03:27;;;;;;;3.17;1.60;;;;;;;;;;4995086;28;20057;-71
2023/01/07 11:06:06;;;;;;;4.05;1.80;;;;;;;;;;4995750;28;20220;-70
2023/01/07 11:08:37;;;;;;;3.92;1.58;;;;;;;;;;5002637;28;20128;-71
2023/01/07 11:13:55;;;;;;;4.35;1.67;;;;;;;;;;5013886;28;20052;-71
2023/01/07 11:16:40;;;;;;;3.60;1.67;;;;;;;;;;4973549;28;20049;-70
2023/01/07 11:19:19;;;;;;;2.72;1.67;;;;;;;;;;4983087;28;20111;-70
2023/01/07 11:21:50;;;;;;;2.90;1.50;;;;;;;;;;5012516;28;20045;-70
2023/01/07 11:24:38;;;;;;;2.97;1.60;;;;;;;;;;4990722;28;20159;-70
2023/01/07 11:27:18;;;;;;;3.55;1.60;;;;;;;;;;4875612;28;20058;-70
2023/01/07 11:29:56;;;;;;;2.95;1.50;;;;;;;;;;4999230;28;20089;-70
2023/01/07 11:32:37;;;;;;;2.92;1.45;;;;;;;;;;4981503;28;20118;-70
2023/01/07 11:38:30;;;;;;;3.13;1.50;;;;;;;;;;4981383;28;20061;-70
2023/01/07 11:41:25;;;;;;;5.93;1.83;;;;;;;;;;4953492;28;20053;-70
2023/01/07 11:44:02;;;;;;;3.42;1.65;;;;;;;;;;4930786;28;20076;-70
2023/01/07 11:46:52;;;;;;;3.30;1.40;;;;;;;;;;4968164;28;20102;-71
2023/01/07 11:49:28;;;;;;;3.95;1.40;;;;;;;;;;4989305;28;20059;-69
2023/01/07 11:52:01;;;;;;;4.75;2.20;;;;;;;;;;4983534;28;20061;-70
2023/01/07 11:54:45;;;;;;;2.40;1.30;;;;;;;;;;4980070;28;20060;-70
2023/01/07 11:57:24;;;;;;;2.40;1.27;;;;;;;;;;4956997;28;20080;-72
2023/01/07 12:00:05;;;;;;;4.13;1.50;;;;;;;;;;5006272;28;20093;-71
2023/01/07 12:05:45;;;;;;;2.58;1.17;;;;;;;;;;4956037;28;20053;-70
2023/01/07 12:08:21;;;;;;;4.03;1.20;;;;;;;;;;4972443;28;20059;-70
2023/01/07 12:10:56;;;;;;;4.55;1.42;;;;;;;;;;4979273;28;20051;-70
2023/01/07 12:13:51;;;;;;;3.10;1.42;;;;;;;;;;4948411;28;20145;-70
2023/01/07 12:16:36;;;;;;;2.58;1.35;;;;;;;;;;4926037;28;20065;-70
2023/01/07 12:19:30;;;;;;;2.63;1.38;;;;;;;;;;4976049;28;20065;-70
2023/01/07 12:22:09;;;;;;;2.60;1.25;;;;;;;;;;4990341;28;20069;-71
2023/01/07 12:24:55;;;;;;;2.30;1.10;;;;;;;;;;4976148;28;20062;-69
2023/01/07 12:27:28;;;;;;;2.75;1.20;;;;;;;;;;4965426;28;20053;-68
2023/01/07 12:30:02;;;;;;;3.03;1.33;;;;;;;;;;4971691;28;20064;-71
2023/01/07 12:32:36;;;;;;;2.30;1.50;;;;;;;;;;4995031;28;20053;-69
2023/01/07 12:35:09;;;;;;;2.45;1.13;;;;;;;;;;4986285;28;20050;-69
2023/01/07 12:37:42;;;;;;;3.35;1.52;;;;;;;;;;4945576;28;20059;-69
2023/01/07 12:40:19;;;;;;;2.60;1.17;;;;;;;;;;4987669;28;20057;-73
2023/01/07 12:42:49;;;;;;;2.85;1.30;;;;;;;;;;4986687;28;20061;-69
2023/01/07 12:45:20;;;;;;;2.92;1.20;;;;;;;;;;4963273;28;20070;-72
2023/01/07 12:47:59;;;;;;;2.25;1.30;;;;;;;;;;4948499;28;20050;-72
2023/01/07 12:50:37;;;;;;;2.28;1.10;;;;;;;;;;4950047;28;20062;-71
2023/01/07 12:53:16;;;;;;;2.78;1.20;;;;;;;;;;4916180;28;20061;-69
2023/01/07 12:55:56;;;;;;;2.03;1.10;;;;;;;;;;4885123;28;20136;-71
2023/01/07 12:58:53;;;;;;;2.92;1.20;;;;;;;;;;4954471;28;20062;-71
2023/01/07 13:01:43;;;;;;;2.25;1.20;;;;;;;;;;4911100;28;20241;-71
2023/01/07 13:08:41;;;;;;;2.80;1.20;;;;;;;;;;4845118;29;20056;-72
2023/01/07 13:14:52;;;;;;;3.38;1.30;;;;;;;;;;4893496;29;19922;-71
2023/01/07 13:20:01;;;;;;;2.80;1.33;;;;;;;;;;4866658;29;20051;-71
2023/01/07 13:26:00;;;;;;;6.13;1.08;;;;;;;;;;4942309;28;20059;-72
2023/01/07 13:31:36;;;;;;;2.42;1.30;;;;;;;;;;4941005;28;20149;-72
2023/01/07 13:34:26;;;;;;;1.83;1.10;;;;;;;;;;5016284;28;20052;-72
2023/01/07 13:37:11;;;;;;;2.58;1.40;;;;;;;;;;4906344;28;20134;-72
2023/01/07 13:39:48;;;;;;;2.22;1.30;;;;;;;;;;4950378;28;20145;-72
2023/01/07 13:42:36;;;;;;;1.85;1.00;;;;;;;;;;4951477;28;20373;-72
2023/01/07 13:45:20;;;;;;;3.15;1.40;;;;;;;;;;4962078;28;20503;-70
2023/01/07 13:47:49;;;;;;;4.25;1.50;;;;;;;;;;4945376;28;20058;-71
2023/01/07 13:50:23;;;;;;;3.83;1.50;;;;;;;;;;4960670;28;20045;-71
2023/01/07 13:53:00;;;;;;;3.15;1.20;;;;;;;;;;4994958;28;20053;-71
2023/01/07 13:55:35;;;;;;;3.88;1.20;;;;;;;;;;4974342;28;20062;-71
2023/01/07 13:58:17;;;;;;;3.00;1.60;;;;;;;;;;4844536;28;20054;-71
2023/01/07 14:03:53;;;;;;;5.28;1.45;;;;;;;;;;4863969;28;20054;-72
2023/01/07 14:06:43;;;;;;;3.83;1.30;;;;;;;;;;4949004;28;20049;-72
2023/01/07 14:09:22;;;;;;;2.17;1.17;;;;;;;;;;4980201;28;20227;-72
2023/01/07 14:12:20;;;;;;;3.92;1.50;;;;;;;;;;5002648;28;20124;-72
2023/01/07 14:17:44;;;;;;;3.47;1.60;;;;;;;;;;4943139;28;20045;-72
2023/01/07 14:23:26;;;;;;;3.30;1.67;;;;;;;;;;4983974;28;20144;-73
2023/01/07 14:26:00;;;;;;;3.25;1.55;;;;;;;;;;4991473;28;20131;-72
2023/01/07 14:28:40;;;;;;;6.47;1.60;;;;;;;;;;4963982;28;20083;-72
2023/01/07 14:31:26;;;;;;;2.63;1.23;;;;;;;;;;4989437;28;20064;-72
2023/01/07 14:34:03;;;;;;;4.72;1.70;;;;;;;;;;4995354;28;20069;-72
2023/01/07 14:39:38;;;;;;;3.08;1.45;;;;;;;;;;4999374;28;20127;-71
2023/01/07 14:42:22;;;;;;;3.75;1.60;;;;;;;;;;4987455;28;20122;-71
2023/01/07 14:44:52;;;;;;;4.22;1.55;;;;;;;;;;5002116;28;20084;-72
2023/01/07 14:47:46;;;;;;;4.72;1.83;;;;;;;;;;4959189;28;20080;-71
2023/01/07 14:50:20;;;;;;;3.92;1.88;;;;;;;;;;4988026;28;20071;-70
2023/01/07 14:53:07;;;;;;;4.47;1.75;;;;;;;;;;5004076;28;20150;-71
2023/01/07 14:55:43;;;;;;;2.92;1.58;;;;;;;;;;4989971;28;20053;-71
2023/01/07 14:58:31;;;;;;;4.20;1.92;;;;;;;;;;4997811;28;20057;-71
2023/01/07 15:01:26;;;;;;;4.88;1.85;;;;;;;;;;4961023;28;20117;-72
2023/01/07 15:18:24;;;;;;;3.35;1.70;;;;;;;;;;4974709;28;20049;-71
2023/01/07 15:21:03;;;;;;;5.57;2.30;;;;;;;;;;4966172;28;20056;-71
2023/01/07 15:23:53;;;;;;;4.00;2.03;;;;;;;;;;5002273;28;20060;-72
2023/01/07 15:26:33;;;;;;;4.03;1.90;;;;;;;;;;4954125;28;20053;-71
2023/01/07 15:29:10;;;;;;;5.53;2.20;;;;;;;;;;4985654;28;20085;-71
2023/01/07 15:31:54;;;;;;;4.68;2.00;;;;;;;;;;4957261;28;20060;-71
2023/01/07 15:34:33;;;;;;;4.80;2.13;;;;;;;;;;5005394;28;20139;-71
2023/01/07 15:37:14;;;;;;;4.43;2.03;;;;;;;;;;4950550;28;20046;-71
2023/01/07 15:39:51;;;;;;;3.13;1.45;;;;;;;;;;5005380;28;20273;-71
2023/01/07 15:42:48;;;;;;;4.25;2.00;;;;;;;;;;4982382;28;20057;-71
2023/01/07 15:45:30;;;;;;;5.32;1.98;;;;;;;;;;4949252;28;20054;-71
2023/01/07 15:48:27;;;;;;;6.45;1.90;;;;;;;;;;4975361;28;20058;-71
2023/01/07 15:50:55;;;;;;;5.35;1.80;;;;;;;;;;4962230;28;20065;-71
2023/01/07 15:53:48;;;;;;;4.32;1.88;;;;;;;;;;4954711;28;20132;-72
2023/01/07 15:56:36;;;;;;;3.85;1.80;;;;;;;;;;4971622;28;20060;-71
2023/01/07 16:01:57;;;;;;;4.82;2.17;;;;;;;;;;4964964;28;20102;-72
2023/01/07 16:04:37;;;;;;;4.80;2.20;;;;;;;;;;4987454;28;20098;-71
2023/01/07 16:07:28;;;;;;;4.10;1.83;;;;;;;;;;4974832;28;20088;-71
2023/01/07 16:16:26;;;;;;;5.35;2.08;;;;;;;;;;4957870;28;20054;-71
2023/01/07 16:18:58;;;;;;;4.47;1.98;;;;;;;;;;4951750;28;20052;-70
2023/01/07 16:21:27;;;;;;;4.32;2.15;;;;;;;;;;4969018;28;20057;-71
2023/01/07 16:23:59;;;;;;;4.55;1.65;;;;;;;;;;4975249;28;20102;-70
2023/01/07 16:26:29;;;;;;;6.57;1.95;;;;;;;;;;4959567;28;20059;-71
2023/01/07 16:29:11;;;;;;;4.30;2.05;;;;;;;;;;4978072;28;20069;-70
2023/01/07 16:31:38;;;;;;;3.55;1.70;;;;;;;;;;4945281;28;20057;-70
2023/01/07 16:34:16;;;;;;;4.03;1.95;;;;;;;;;;4991609;28;20148;-70
2023/01/07 16:36:45;;;;;;;3.53;1.80;;;;;;;;;;4984061;28;20116;-71
2023/01/07 16:42:18;;;;;;;4.20;1.90;;;;;;;;;;5005654;28;19929;-70
2023/01/07 16:47:58;;;;;;;4.45;1.80;;;;;;;;;;4966137;28;20062;-72
2023/01/07 16:50:49;;;;;;;3.58;1.80;;;;;;;;;;4973946;28;20049;-72
2023/01/07 16:53:32;;;;;;;5.63;2.10;;;;;;;;;;4984502;28;20085;-73
2023/01/07 16:56:24;;;;;;;3.70;1.90;;;;;;;;;;5011402;28;20059;-73
2023/01/07 16:58:52;;;;;;;5.15;1.85;;;;;;;;;;4935701;28;20063;-71
2023/01/07 17:01:29;;;;;;;4.05;1.90;;;;;;;;;;4981241;28;20148;-72